Time;durP1;ratioP1;P1;durP2;ratioP2;P2;SDS_P1;SDS_P2;PMS_P1;PMS_P2;Temp;Humidity;BMP_temperature;BMP_pressure;BME280_temperature;BME280_humidity;BME280_pressure;Samples;Min_cycle;Max_cycle;Signal;HPM_P1;HPM_P2
2022/05/28 00:00:56;;;;;;;;;9.75;7.25;;;;;14.10;59.62;101523.22;4977134;28;45698;-73
2022/05/28 00:03:23;;;;;;;;;10.75;10.75;;;;;14.08;60.12;101526.81;4976754;28;45292;-72
2022/05/28 00:05:49;;;;;;;;;10.00;9.00;;;;;14.06;59.71;101516.31;4977463;28;45287;-72
2022/05/28 00:08:15;;;;;;;;;13.50;13.00;;;;;14.03;59.83;101506.72;4977207;28;45269;-73
2022/05/28 00:10:42;;;;;;;;;12.75;11.00;;;;;14.03;59.81;101513.78;4977123;28;45334;-73
2022/05/28 00:13:07;;;;;;;;;12.50;11.00;;;;;14.00;59.95;101512.13;4977172;28;46456;-73
2022/05/28 00:15:33;;;;;;;;;11.75;10.00;;;;;13.98;59.48;101505.19;4978042;28;45317;-73
2022/05/28 00:17:59;;;;;;;;;8.75;8.75;;;;;13.99;60.14;101513.03;4981805;28;45500;-73
2022/05/28 00:20:25;;;;;;;;;10.00;9.00;;;;;13.99;60.48;101506.91;4980743;28;45346;-72
2022/05/28 00:22:50;;;;;;;;;9.25;8.50;;;;;13.95;60.50;101508.78;4978867;28;45426;-73
2022/05/28 00:25:17;;;;;;;;;14.00;11.00;;;;;13.88;60.83;101505.56;4980468;28;45391;-72
2022/05/28 00:27:43;;;;;;;;;11.25;10.00;;;;;13.86;60.99;101503.88;4980768;28;45283;-72
2022/05/28 00:30:12;;;;;;;;;9.25;9.00;;;;;13.71;61.28;101479.75;4976404;28;45204;-72
2022/05/28 00:32:38;;;;;;;;;12.75;9.25;;;;;13.83;61.33;101507.50;4977080;28;47334;-71
2022/05/28 00:35:04;;;;;;;;;10.25;10.25;;;;;13.72;61.35;101489.41;4976498;28;45412;-72
2022/05/28 00:37:30;;;;;;;;;9.25;9.25;;;;;13.80;61.47;101498.81;4977238;28;45314;-71
2022/05/28 00:39:55;;;;;;;;;7.00;6.00;;;;;13.79;61.49;101491.81;4979185;28;45256;-73
2022/05/28 00:42:21;;;;;;;;;10.00;9.00;;;;;13.79;61.78;101497.97;4977057;28;46155;-72
2022/05/28 00:44:47;;;;;;;;;10.00;9.75;;;;;13.78;61.58;101498.03;4976067;28;45492;-73
2022/05/28 00:47:12;;;;;;;;;10.25;8.75;;;;;13.78;61.71;101490.09;4978307;28;45251;-72
2022/05/28 00:49:38;;;;;;;;;7.50;7.50;;;;;13.77;61.80;101497.16;4982653;28;45152;-72
2022/05/28 00:52:07;;;;;;;;;11.25;10.00;;;;;13.76;62.21;101492.78;4977806;28;46329;-73
2022/05/28 00:54:38;;;;;;;;;9.25;9.25;;;;;13.73;61.96;101484.97;4979541;28;45398;-71
2022/05/28 00:57:04;;;;;;;;;9.50;9.50;;;;;13.72;61.82;101483.25;4979750;28;45311;-73
2022/05/28 00:59:30;;;;;;;;;9.50;9.50;;;;;13.71;61.96;101484.16;4979050;28;45203;-72
2022/05/28 01:02:02;;;;;;;;;12.25;8.75;;;;;13.72;61.98;101491.19;4979287;28;47410;-73
2022/05/28 01:04:58;;;;;;;;;9.75;9.75;;;;;13.70;62.23;101493.03;4977495;28;45264;-71
2022/05/28 01:08:14;;;;;;;;;10.25;10.25;;;;;13.71;62.16;101486.81;4976095;28;45255;-73
2022/05/28 01:10:59;;;;;;;;;12.75;9.75;;;;;13.68;62.53;101479.88;5036700;28;45379;-72
2022/05/28 01:13:43;;;;;;;;;9.25;9.25;;;;;13.66;62.13;101486.13;5036374;28;46222;-72
2022/05/28 01:16:15;;;;;;;;;10.75;9.75;;;;;13.64;62.45;101482.69;4989748;28;45402;-72
2022/05/28 01:18:48;;;;;;;;;15.25;10.00;;;;;13.62;61.76;101489.81;4975522;28;45373;-74
2022/05/28 01:21:28;;;;;;;;;11.50;10.75;;;;;13.50;62.46;101465.56;4977374;28;45461;-72
2022/05/28 01:24:12;;;;;;;;;9.75;9.75;;;;;13.58;62.62;101483.81;4976557;28;46177;-73
2022/05/28 01:26:49;;;;;;;;;16.25;11.00;;;;;13.51;62.81;101472.59;4976569;28;45405;-73
2022/05/28 01:29:17;;;;;;;;;11.00;9.00;;;;;13.47;62.55;101473.63;4978425;28;45333;-72
2022/05/28 01:31:46;;;;;;;;;14.00;12.00;;;;;13.46;62.86;101463.13;4977985;28;45862;-73
2022/05/28 01:34:14;;;;;;;;;15.50;11.75;;;;;13.41;62.92;101476.47;4976732;28;47484;-71
2022/05/28 01:36:41;;;;;;;;;9.50;9.50;;;;;13.41;62.97;101471.19;4974990;28;45294;-74
2022/05/28 01:39:07;;;;;;;;;13.00;11.00;;;;;13.39;63.18;101473.91;4978749;28;45327;-72
2022/05/28 01:41:36;;;;;;;;;12.00;11.00;;;;;13.38;62.94;101476.59;4977601;28;45398;-71
2022/05/28 01:44:03;;;;;;;;;16.00;12.00;;;;;13.29;63.21;101461.97;4977775;28;46717;-73
2022/05/28 01:46:31;;;;;;;;;11.50;11.50;;;;;13.34;63.65;101472.34;4978429;28;45191;-73
2022/05/28 01:48:57;;;;;;;;;12.00;10.25;;;;;13.21;63.27;101453.41;4975380;28;45251;-72
2022/05/28 01:51:35;;;;;;;;;11.50;10.00;;;;;13.26;63.62;101470.00;4977881;28;45291;-72
2022/05/28 01:54:11;;;;;;;;;12.25;12.25;;;;;13.20;63.50;101456.97;4976424;28;45426;-72
2022/05/28 01:56:43;;;;;;;;;13.00;11.50;;;;;13.21;63.56;101461.34;4976230;28;45337;-73
2022/05/28 01:59:13;;;;;;;;;12.50;12.00;;;;;13.20;63.84;101463.16;4976447;28;45195;-73
2022/05/28 02:01:39;;;;;;;;;16.00;10.50;;;;;13.18;63.48;101464.97;4978010;28;45525;-73
2022/05/28 02:04:06;;;;;;;;;10.00;10.00;;;;;13.18;63.67;101457.06;4977022;28;45247;-73
2022/05/28 02:06:33;;;;;;;;;16.50;13.00;;;;;13.15;63.71;101455.38;4977017;28;45270;-72
2022/05/28 02:09:00;;;;;;;;;11.00;11.00;;;;;13.13;63.59;101448.44;4976610;28;45407;-74
2022/05/28 02:11:33;;;;;;;;;10.50;10.50;;;;;13.14;63.68;101452.81;4976693;28;45553;-72
2022/05/28 02:14:14;;;;;;;;;12.00;11.25;;;;;13.12;63.33;101452.84;4977100;28;46104;-72
2022/05/28 02:16:49;;;;;;;;;13.00;10.50;;;;;13.11;63.48;101448.47;4978959;28;45523;-71
2022/05/28 02:19:39;;;;;;;;;13.00;11.00;;;;;13.06;63.48;101445.16;4976723;28;45207;-72
2022/05/28 02:22:12;;;;;;;;;10.25;9.00;;;;;13.05;63.72;101439.94;4977709;28;45936;-72
2022/05/28 02:24:45;;;;;;;;;10.25;8.75;;;;;13.07;63.77;101443.38;4976509;28;46303;-71
2022/05/28 02:27:17;;;;;;;;;11.50;11.25;;;;;13.04;63.94;101443.50;4975811;28;45327;-73
2022/05/28 02:29:43;;;;;;;;;10.00;10.00;;;;;13.00;63.63;101440.09;4977539;28;45302;-73
2022/05/28 02:32:21;;;;;;;;;13.00;11.00;;;;;12.99;63.91;101439.25;4976108;28;45190;-73
2022/05/28 02:34:47;;;;;;;;;13.50;10.50;;;;;12.98;63.96;101432.25;4974340;28;46127;-72
2022/05/28 02:37:14;;;;;;;;;15.50;14.00;;;;;12.94;64.24;101427.13;4975398;28;45475;-73
2022/05/28 02:39:39;;;;;;;;;11.00;8.25;;;;;12.91;64.33;101421.94;4975603;28;45379;-73
2022/05/28 02:42:05;;;;;;;;;9.00;9.00;;;;;12.88;64.38;101419.41;4975155;28;45536;-73
2022/05/28 02:44:30;;;;;;;;;8.75;8.75;;;;;12.87;64.52;101418.56;4975950;28;45355;-73
2022/05/28 02:46:56;;;;;;;;;10.50;8.75;;;;;12.84;64.42;101429.25;4976088;28;45309;-72
2022/05/28 02:49:23;;;;;;;;;9.50;9.50;;;;;12.84;64.31;101423.97;4974958;28;45382;-73
2022/05/28 02:51:49;;;;;;;;;12.75;11.00;;;;;12.85;64.74;101426.53;4976055;28;45318;-72
2022/05/28 02:54:14;;;;;;;;;11.50;9.25;;;;;12.84;64.73;101430.09;4976539;28;46078;-73
2022/05/28 02:56:39;;;;;;;;;16.75;16.00;;;;;12.84;65.00;101418.69;4983787;28;45181;-72
2022/05/28 02:59:05;;;;;;;;;12.25;12.25;;;;;12.87;64.76;101423.84;4975287;28;45295;-72
2022/05/28 03:01:35;;;;;;;;;11.00;9.75;;;;;12.86;64.72;101420.34;4974588;28;45430;-74
2022/05/28 03:04:03;;;;;;;;;13.00;11.25;;;;;12.86;65.04;101420.34;4974216;28;45394;-73
2022/05/28 03:06:29;;;;;;;;;10.00;9.25;;;;;12.82;64.98;101415.25;4976086;28;45370;-73
2022/05/28 03:08:55;;;;;;;;;14.25;11.00;;;;;12.83;65.07;101415.16;4975524;28;45385;-72
2022/05/28 03:11:20;;;;;;;;;11.25;9.00;;;;;12.80;64.87;101410.00;4974994;28;45577;-71
2022/05/28 03:13:46;;;;;;;;;11.00;10.50;;;;;12.81;65.20;101417.00;4974262;28;46197;-72
2022/05/28 03:16:12;;;;;;;;;14.00;13.00;;;;;12.79;65.09;101418.00;4976468;28;45283;-73
2022/05/28 03:18:37;;;;;;;;;11.75;11.75;;;;;12.75;64.99;101413.75;4974336;28;45418;-71
2022/05/28 03:21:04;;;;;;;;;11.25;11.00;;;;;12.77;65.28;101415.41;4974809;28;45682;-72
2022/05/28 03:23:30;;;;;;;;;13.50;12.75;;;;;12.76;65.31;101416.31;4973327;28;46099;-72
2022/05/28 03:25:55;;;;;;;;;11.75;10.00;;;;;12.75;65.45;101419.03;4974013;28;45371;-71
2022/05/28 03:28:21;;;;;;;;;11.50;10.00;;;;;12.74;65.25;101419.94;4977637;28;45261;-72
2022/05/28 03:30:46;;;;;;;;;8.25;7.75;;;;;12.73;65.35;101410.28;4975159;28;45563;-73
2022/05/28 03:33:12;;;;;;;;;15.25;11.75;;;;;12.67;65.83;101404.28;4973621;28;46013;-72
2022/05/28 03:35:38;;;;;;;;;11.75;11.00;;;;;12.68;65.45;101418.38;4973849;28;45336;-72
2022/05/28 03:38:04;;;;;;;;;15.00;12.00;;;;;12.67;65.74;101417.50;4972268;28;45188;-72
2022/05/28 03:40:30;;;;;;;;;11.75;11.75;;;;;12.66;66.08;101409.63;4974555;28;45375;-72
2022/05/28 03:42:56;;;;;;;;;11.25;9.50;;;;;12.66;66.01;101415.75;4973984;28;45445;-72
2022/05/28 03:45:25;;;;;;;;;9.25;9.25;;;;;12.63;66.41;101417.66;4973820;28;45335;-73
2022/05/28 03:47:51;;;;;;;;;8.75;8.50;;;;;12.61;66.22;101417.72;4973910;28;45467;-73
2022/05/28 03:50:16;;;;;;;;;11.00;11.00;;;;;12.59;66.46;101418.69;4976830;28;45445;-72
2022/05/28 03:52:42;;;;;;;;;16.25;12.25;;;;;12.57;66.45;101416.09;4973630;28;46356;-72
2022/05/28 03:55:08;;;;;;;;;11.75;9.75;;;;;12.54;66.60;101426.75;4974639;28;45428;-72
2022/05/28 03:57:33;;;;;;;;;13.75;13.75;;;;;12.50;66.59;101425.13;4973787;28;45278;-72
2022/05/28 03:59:59;;;;;;;;;14.50;12.00;;;;;12.55;66.53;101437.28;4976132;28;45268;-71
2022/05/28 04:02:26;;;;;;;;;12.75;10.00;;;;;12.52;67.06;101437.38;4973680;28;45482;-72
2022/05/28 04:04:52;;;;;;;;;10.75;9.75;;;;;12.54;67.01;101442.59;4974199;28;45386;-72
2022/05/28 04:07:18;;;;;;;;;14.00;12.75;;;;;12.50;67.03;101433.94;4974840;28;45456;-71
2022/05/28 04:09:44;;;;;;;;;18.50;12.50;;;;;12.50;67.43;101439.22;4974434;28;45541;-72
2022/05/28 04:12:10;;;;;;;;;12.50;12.00;;;;;12.49;67.58;101440.13;4977845;28;45440;-72
2022/05/28 04:14:35;;;;;;;;;13.75;10.75;;;;;12.49;67.80;101437.50;4976985;28;45406;-73
2022/05/28 04:17:01;;;;;;;;;9.50;9.50;;;;;12.49;67.80;101433.97;4977123;28;45331;-73
2022/05/28 04:19:27;;;;;;;;;15.50;14.00;;;;;12.50;67.85;101436.56;4979316;28;45616;-73
2022/05/28 04:21:52;;;;;;;;;11.50;11.50;;;;;12.50;68.24;101448.88;4978069;28;46050;-72
2022/05/28 04:24:18;;;;;;;;;13.75;13.75;;;;;12.49;68.00;101461.25;4976627;28;45335;-72
2022/05/28 04:26:43;;;;;;;;;14.00;12.75;;;;;12.49;68.20;101452.44;4976818;28;45184;-73
2022/05/28 04:29:09;;;;;;;;;12.75;11.50;;;;;12.49;68.25;101449.81;4977055;28;45322;-75
2022/05/28 04:31:35;;;;;;;;;12.25;12.25;;;;;12.49;68.47;101444.53;4978671;28;45338;-73
2022/05/28 04:34:00;;;;;;;;;17.00;12.50;;;;;12.49;68.53;101453.31;4967148;28;45460;-73
2022/05/28 04:36:25;;;;;;;;;8.50;8.50;;;;;12.48;68.07;101451.59;4957373;28;45315;-74
2022/05/28 04:38:51;;;;;;;;;16.75;13.00;;;;;12.47;68.17;101451.63;4958055;28;45640;-73
2022/05/28 04:41:16;;;;;;;;;13.50;12.00;;;;;12.53;68.13;101454.06;4963415;28;46019;-73
2022/05/28 04:43:42;;;;;;;;;13.75;12.25;;;;;12.56;68.12;101451.31;4975304;28;45226;-74
2022/05/28 04:46:07;;;;;;;;;14.00;11.50;;;;;12.64;68.21;101453.69;4976954;28;45252;-74
2022/05/28 04:48:34;;;;;;;;;15.75;13.00;;;;;12.70;67.74;101454.34;4985466;28;45725;-74
2022/05/28 04:50:59;;;;;;;;;15.00;12.75;;;;;12.74;67.76;101448.97;4995831;28;45329;-71
2022/05/28 04:53:25;;;;;;;;;22.00;11.50;;;;;12.79;67.50;101449.69;5042826;28;45385;-73
2022/05/28 04:55:50;;;;;;;;;17.00;14.50;;;;;12.86;67.58;101457.31;4996576;28;45323;-74
2022/05/28 04:58:16;;;;;;;;;13.75;11.50;;;;;12.83;67.22;101443.38;5027243;28;45488;-73
2022/05/28 05:00:43;;;;;;;;;12.50;12.50;;;;;12.96;67.18;101459.63;4993858;27;45532;-72
2022/05/28 05:03:08;;;;;;;;;11.75;11.50;;;;;13.01;66.79;101449.75;4979287;28;45501;-74
2022/05/28 05:05:34;;;;;;;;;16.25;13.50;;;;;13.14;66.74;101456.28;4976355;28;45268;-74
2022/05/28 05:07:59;;;;;;;;;11.50;10.50;;;;;13.31;66.10;101449.53;4976233;28;45208;-74
2022/05/28 05:10:25;;;;;;;;;15.00;12.25;;;;;13.53;66.00;101461.97;4975753;28;46294;-77
2022/05/28 05:12:51;;;;;;;;;10.50;10.50;;;;;13.66;65.39;101455.28;4976208;28;45414;-75
2022/05/28 05:15:16;;;;;;;;;13.75;11.75;;;;;13.78;65.00;101468.94;4978589;28;45352;-75
2022/05/28 05:17:42;;;;;;;;;12.00;9.00;;;;;13.89;64.62;101466.72;4977076;28;45492;-73
2022/05/28 05:20:10;;;;;;;;;14.50;9.50;;;;;14.01;64.22;101466.22;4974839;28;45283;-73
2022/05/28 05:22:35;;;;;;;;;14.50;11.25;;;;;14.16;64.19;101461.22;4975348;28;45213;-77
2022/05/28 05:25:01;;;;;;;;;14.00;10.75;;;;;14.34;63.30;101467.56;4976377;28;45594;-77
2022/05/28 05:27:26;;;;;;;;;13.25;9.25;;;;;14.51;62.76;101471.28;4977712;28;45568;-75
2022/05/28 05:29:55;;;;;;;;;12.75;12.75;;;;;14.55;62.45;101462.28;4978481;28;45507;-76
2022/05/28 05:32:20;;;;;;;;;14.50;11.00;;;;;14.60;62.67;101462.94;4975744;28;45374;-75
2022/05/28 05:34:45;;;;;;;;;11.75;11.75;;;;;14.55;62.08;101444.63;4974506;28;45407;-74
2022/05/28 05:37:12;;;;;;;;;12.00;8.75;;;;;14.63;62.01;101460.16;4979423;28;45689;-76
2022/05/28 05:39:37;;;;;;;;;11.00;8.00;;;;;14.63;61.95;101452.22;4982802;28;46397;-76
2022/05/28 05:42:03;;;;;;;;;11.00;9.50;;;;;14.65;61.82;101454.81;4976673;28;45442;-77
2022/05/28 05:44:28;;;;;;;;;11.75;11.25;;;;;14.61;61.76;101447.00;4975734;28;45332;-76
2022/05/28 05:46:55;;;;;;;;;14.00;11.00;;;;;14.64;61.57;101453.09;4975771;28;45291;-76
2022/05/28 05:49:21;;;;;;;;;13.00;11.00;;;;;14.63;61.28;101451.38;4975954;28;46324;-78
2022/05/28 05:51:47;;;;;;;;;13.25;10.75;;;;;14.62;61.57;101453.13;4975473;28;45387;-77
2022/05/28 05:54:13;;;;;;;;;11.25;10.00;;;;;14.64;61.54;101446.00;4976025;28;45416;-76
2022/05/28 05:56:39;;;;;;;;;13.00;10.25;;;;;14.64;61.42;101446.00;4977993;28;45576;-77
2022/05/28 05:59:04;;;;;;;;;14.25;13.00;;;;;14.65;61.21;101460.09;4980075;28;46157;-78
2022/05/28 06:01:30;;;;;;;;;10.75;10.75;;;;;14.60;61.70;101457.63;4976879;28;45371;-77
2022/05/28 06:03:56;;;;;;;;;12.00;10.25;;;;;14.60;61.37;101447.03;4975911;28;45335;-76
2022/05/28 06:06:21;;;;;;;;;14.50;13.00;;;;;14.65;61.49;101454.81;4974659;28;45200;-79
2022/05/28 06:08:47;;;;;;;;;13.75;11.50;;;;;14.68;61.56;101459.97;4974641;28;46950;-77
2022/05/28 06:11:13;;;;;;;;;13.25;11.25;;;;;14.70;61.26;101452.84;4976567;28;45310;-75
2022/05/28 06:13:38;;;;;;;;;15.75;11.75;;;;;14.72;61.46;101457.13;4978887;28;45289;-74
2022/05/28 06:16:05;;;;;;;;;15.25;12.00;;;;;14.75;61.45;101462.28;4976074;28;45551;-75
2022/05/28 06:18:31;;;;;;;;;11.50;11.00;;;;;14.77;61.18;101464.00;4975121;28;46196;-74
2022/05/28 06:20:59;;;;;;;;;14.75;14.00;;;;;14.65;61.47;101458.31;4977397;28;45427;-73
2022/05/28 06:23:24;;;;;;;;;14.50;12.75;;;;;14.55;61.71;101454.31;4975625;28;45398;-74
2022/05/28 06:25:50;;;;;;;;;13.25;12.00;;;;;14.60;61.83;101466.47;4974295;28;45308;-74
2022/05/28 06:28:15;;;;;;;;;17.75;13.25;;;;;14.59;61.78;101463.84;4975631;28;45187;-74
2022/05/28 06:30:43;;;;;;;;;12.50;11.00;;;;;14.55;61.70;101452.56;4975435;28;45392;-75
2022/05/28 06:33:09;;;;;;;;;14.75;13.50;;;;;14.58;62.04;101456.84;4974459;28;45505;-76
2022/05/28 06:35:34;;;;;;;;;17.75;13.75;;;;;14.69;61.89;101464.34;4974570;28;45380;-73
2022/05/28 06:37:59;;;;;;;;;17.00;11.75;;;;;14.74;62.22;101457.09;4975817;28;46177;-76
2022/05/28 06:40:25;;;;;;;;;13.75;13.25;;;;;14.88;62.33;101464.44;4976232;28;45335;-77
2022/05/28 06:42:51;;;;;;;;;16.00;14.50;;;;;14.94;62.36;101468.59;4979449;28;45345;-77
2022/05/28 06:45:17;;;;;;;;;17.75;13.75;;;;;14.92;62.58;101457.19;4974985;28;45275;-76
2022/05/28 06:47:44;;;;;;;;;14.25;14.25;;;;;15.02;62.64;101466.44;4973906;28;45308;-77
2022/05/28 06:52:56;;;;;;;;;15.00;12.25;;;;;15.10;62.39;101464.31;4975098;28;45331;-76
2022/05/28 06:55:22;;;;;;;;;16.25;13.00;;;;;15.16;62.31;101464.03;4974546;28;45321;-78
2022/05/28 06:57:48;;;;;;;;;19.50;16.25;;;;;15.22;62.12;101468.22;4976464;28;45646;-77
2022/05/28 07:00:14;;;;;;;;;13.75;12.25;;;;;15.24;61.73;101462.81;4975598;28;45441;-75
2022/05/28 07:02:39;;;;;;;;;15.50;12.50;;;;;15.15;61.70;101456.16;4978345;28;45366;-77
2022/05/28 07:05:05;;;;;;;;;12.00;12.00;;;;;15.11;62.14;101454.59;4980002;28;45236;-77
2022/05/28 07:07:30;;;;;;;;;13.00;13.00;;;;;15.13;61.99;101460.69;4974211;28;46256;-79
2022/05/28 07:09:57;;;;;;;;;15.75;14.50;;;;;15.13;62.25;101464.19;4973446;27;45300;-76
2022/05/28 07:12:23;;;;;;;;;14.75;13.25;;;;;15.11;62.07;101458.09;4974426;28;45465;-78
2022/05/28 07:14:48;;;;;;;;;15.75;13.50;;;;;15.10;61.92;101461.66;4997566;28;45548;-75
2022/05/28 07:17:13;;;;;;;;;18.00;13.25;;;;;15.04;62.16;101457.53;4978736;28;45341;-75
2022/05/28 07:19:39;;;;;;;;;16.75;16.00;;;;;15.10;62.38;101452.88;4973965;28;45414;-77
2022/05/28 07:22:04;;;;;;;;;16.50;16.25;;;;;15.14;61.97;101447.34;4974440;28;45350;-77
2022/05/28 07:24:29;;;;;;;;;13.00;13.00;;;;;15.23;62.05;101451.38;4974583;28;45178;-77
2022/05/28 07:26:55;;;;;;;;;15.50;12.75;;;;;15.19;61.86;101442.69;4977594;28;46253;-76
2022/05/28 07:29:21;;;;;;;;;15.00;13.75;;;;;15.21;61.87;101437.34;4973952;28;45352;-74
2022/05/28 07:31:46;;;;;;;;;16.25;13.75;;;;;15.20;61.87;101438.28;4974157;28;45272;-77
2022/05/28 07:34:12;;;;;;;;;16.25;16.00;;;;;15.27;61.79;101446.78;4973104;28;45353;-76
2022/05/28 07:36:38;;;;;;;;;15.25;14.00;;;;;15.32;61.67;101445.66;4972208;28;46570;-78
2022/05/28 07:39:04;;;;;;;;;13.25;12.00;;;;;15.35;61.47;101439.31;4971929;28;45375;-78
2022/05/28 07:41:30;;;;;;;;;13.25;13.25;;;;;15.38;61.34;101425.09;4973906;28;45472;-74
2022/05/28 07:43:56;;;;;;;;;23.00;16.50;;;;;15.48;61.22;101440.50;4976374;28;45323;-77
2022/05/28 07:46:27;;;;;;;;;15.50;15.25;;;;;15.53;60.61;101436.78;4974714;28;46279;-74
2022/05/28 07:48:54;;;;;;;;;18.00;16.75;;;;;15.57;61.22;101443.66;4978251;28;45393;-76
2022/05/28 07:51:19;;;;;;;;;15.75;13.25;;;;;15.70;60.94;101438.59;4978693;28;45395;-73
2022/05/28 07:53:45;;;;;;;;;16.75;15.50;;;;;15.84;60.73;101448.56;4978227;28;45319;-75
2022/05/28 07:56:11;;;;;;;;;19.50;16.25;;;;;15.93;60.57;101434.03;4978857;28;46098;-77
2022/05/28 07:58:37;;;;;;;;;16.25;14.75;;;;;16.02;60.70;101441.53;4975877;28;45458;-77
2022/05/28 08:01:04;;;;;;;;;19.00;13.75;;;;;16.15;60.21;101436.44;4975166;28;45336;-78
2022/05/28 08:03:30;;;;;;;;;18.50;16.75;;;;;16.27;59.78;101430.53;4975521;28;45081;-76
2022/05/28 08:05:56;;;;;;;;;16.25;15.00;;;;;16.44;59.37;101429.66;4957253;28;48797;-74
2022/05/28 08:08:25;;;;;;;;;17.50;15.25;;;;;16.46;58.94;101427.78;4976356;28;45271;-76
2022/05/28 08:10:51;;;;;;;;;22.50;19.50;;;;;16.35;58.66;101412.41;4978009;28;45342;-75
2022/05/28 08:13:19;;;;;;;;;17.00;15.00;;;;;16.47;58.90;101434.81;4977137;28;45546;-78
2022/05/28 08:15:46;;;;;;;;;16.75;12.75;;;;;16.54;58.57;101434.50;4976915;28;47120;-77
2022/05/28 08:18:14;;;;;;;;;18.25;17.00;;;;;16.71;58.09;101425.66;4977239;28;45236;-78
2022/05/28 08:23:24;;;;;;;;;18.25;13.25;;;;;17.07;57.76;101432.63;4976891;28;45380;-75
2022/05/28 08:25:50;;;;;;;;;15.50;14.75;;;;;17.21;57.12;101434.56;4975851;28;45464;-77
2022/05/28 08:28:18;;;;;;;;;14.00;9.25;;;;;17.37;56.58;101429.25;4979105;28;45467;-77
2022/05/28 08:30:44;;;;;;;;;24.50;18.00;;;;;17.50;56.65;101429.41;4977082;28;45242;-76
2022/05/28 08:33:12;;;;;;;;;16.75;11.75;;;;;17.61;56.28;101428.84;4979177;28;45200;-78
2022/05/28 08:35:39;;;;;;;;;17.25;14.25;;;;;17.75;56.03;101436.00;4975649;28;46082;-77
2022/05/28 08:38:17;;;;;;;;;14.75;14.50;;;;;17.75;55.10;101436.88;4975814;28;45416;-78
2022/05/28 08:40:50;;;;;;;;;19.75;12.75;;;;;17.59;55.07;101434.22;4975566;28;45377;-78
2022/05/28 08:43:18;;;;;;;;;16.75;14.00;;;;;17.57;55.34;101427.28;4974994;28;45363;-77
2022/05/28 08:45:45;;;;;;;;;18.25;14.25;;;;;17.60;55.06;101433.28;4975378;28;45411;-75
2022/05/28 08:48:17;;;;;;;;;19.00;15.00;;;;;17.53;55.08;101421.28;4975838;28;45346;-79
2022/05/28 08:50:55;;;;;;;;;13.75;12.50;;;;;17.66;54.94;101426.78;4976039;28;45338;-77
2022/05/28 08:53:26;;;;;;;;;14.25;11.75;;;;;17.78;54.48;101423.41;4992021;28;45537;-76
2022/05/28 08:55:53;;;;;;;;;16.25;14.00;;;;;17.95;53.63;101421.56;4977386;28;45543;-76
2022/05/28 08:58:23;;;;;;;;;12.25;12.25;;;;;18.09;53.72;101428.78;4975386;28;45353;-75
2022/05/28 09:01:18;;;;;;;;;14.50;12.00;;;;;18.09;52.49;101421.66;4975087;28;45358;-78
2022/05/28 09:03:49;;;;;;;;;12.50;9.75;;;;;18.10;52.35;101417.19;4977325;28;45322;-78
2022/05/28 09:06:19;;;;;;;;;13.50;12.50;;;;;18.19;52.54;101414.00;4973987;28;46168;-76
2022/05/28 09:08:49;;;;;;;;;14.00;12.00;;;;;18.27;52.86;101410.84;4975340;28;45354;-78
2022/05/28 09:11:14;;;;;;;;;17.50;15.00;;;;;18.43;51.99;101407.28;4979227;28;45237;-75
2022/05/28 09:13:50;;;;;;;;;15.50;11.50;;;;;18.53;51.65;101403.09;4981459;28;45382;-76
2022/05/28 09:16:35;;;;;;;;;14.50;10.75;;;;;18.63;51.77;101398.94;4976545;28;45292;-75
2022/05/28 09:19:08;;;;;;;;;14.25;14.25;;;;;18.79;51.04;101396.19;4977625;28;45420;-76
2022/05/28 09:21:34;;;;;;;;;13.00;10.00;;;;;18.85;50.95;101394.94;4976862;28;45389;-74
2022/05/28 09:24:21;;;;;;;;;10.75;9.50;;;;;18.98;49.03;101395.94;4977189;28;45552;-76
2022/05/28 09:27:04;;;;;;;;;8.50;8.00;;;;;19.14;48.46;101394.94;4977465;28;46118;-76
2022/05/28 09:30:08;;;;;;;;;13.00;12.25;;;;;19.18;48.90;101390.28;4976717;28;45417;-76
2022/05/28 09:33:01;;;;;;;;;15.25;13.00;;;;;19.31;48.36;101385.00;4975296;28;45401;-76
2022/05/28 09:35:44;;;;;;;;;10.00;10.00;;;;;19.47;47.60;101393.72;4975722;28;45622;-74
2022/05/28 09:38:35;;;;;;;;;20.25;11.75;;;;;19.69;48.02;101389.69;4974089;28;46380;-76
2022/05/28 09:41:17;;;;;;;;;14.25;12.00;;;;;20.05;47.56;101384.66;4975883;28;45417;-77
2022/05/28 09:44:05;;;;;;;;;11.00;10.25;;;;;20.36;46.66;101379.91;4976385;28;45346;-76
2022/05/28 09:46:37;;;;;;;;;9.00;6.75;;;;;20.65;46.19;101364.50;4974955;28;45305;-77
2022/05/28 09:49:12;;;;;;;;;12.75;12.00;;;;;20.93;45.45;101378.63;4974524;28;45977;-77
2022/05/28 09:51:37;;;;;;;;;10.50;10.50;;;;;20.86;45.16;101322.03;4974637;28;45294;-77
2022/05/28 09:54:23;;;;;;;;;9.75;9.50;;;;;21.37;44.90;101373.69;4974804;28;45372;-78
2022/05/28 09:57:00;;;;;;;;;12.25;10.50;;;;;21.58;43.79;101357.00;4974237;27;45610;-77
2022/05/28 09:59:32;;;;;;;;;8.25;8.25;;;;;21.65;43.64;101355.59;4977369;28;46107;-78
2022/05/28 10:02:17;;;;;;;;;11.25;10.00;;;;;21.68;43.28;101352.69;4976079;27;45299;-75
2022/05/28 10:04:48;;;;;;;;;11.50;10.25;;;;;21.60;43.34;101347.88;4975114;28;45438;-76
2022/05/28 10:07:14;;;;;;;;;11.50;8.75;;;;;21.62;41.94;101349.59;4975325;28;45429;-78
2022/05/28 10:09:53;;;;;;;;;9.25;7.00;;;;;21.45;42.80;101323.13;4973212;28;45398;-74
2022/05/28 10:12:31;;;;;;;;;7.50;7.50;;;;;21.58;42.00;101333.75;4973449;28;45334;-78
2022/05/28 10:15:12;;;;;;;;;8.75;8.00;;;;;21.62;42.24;101342.41;4973501;28;45319;-73
2022/05/28 10:17:41;;;;;;;;;12.50;10.00;;;;;21.74;41.95;101340.69;4965450;28;45311;-74
2022/05/28 10:20:19;;;;;;;;;13.00;10.50;;;;;21.93;41.26;101345.47;4970529;28;47393;-73
2022/05/28 10:22:46;;;;;;;;;9.75;8.75;;;;;22.09;39.77;101341.63;4973836;28;45902;-72
2022/05/28 10:25:36;;;;;;;;;8.00;6.75;;;;;22.14;40.11;101331.41;4973633;28;45318;-74
2022/05/28 10:28:03;;;;;;;;;10.00;8.25;;;;;22.18;39.62;101335.53;4976588;28;45654;-74
2022/05/28 10:30:34;;;;;;;;;11.25;9.25;;;;;22.04;39.64;101339.31;4976677;28;45426;-73
2022/05/28 10:33:12;;;;;;;;;9.25;8.00;;;;;21.76;40.20;101327.16;4973859;28;45334;-76
2022/05/28 10:35:39;;;;;;;;;9.00;9.00;;;;;21.69;40.67;101334.78;4973686;28;45408;-73
2022/05/28 10:38:17;;;;;;;;;8.50;6.00;;;;;21.56;40.50;101346.41;4974051;27;45454;-74
2022/05/28 10:40:48;;;;;;;;;8.75;7.75;;;;;21.40;40.27;101332.44;4974154;28;45945;-74
2022/05/28 10:43:29;;;;;;;;;9.25;6.75;;;;;21.07;40.86;101299.22;4973525;28;45788;-73
2022/05/28 10:46:11;;;;;;;;;6.75;6.75;;;;;21.22;40.15;101324.00;4974870;28;45341;-73
2022/05/28 10:49:00;;;;;;;;;5.50;5.50;;;;;21.27;40.56;101325.34;4974323;28;45330;-72
2022/05/28 10:51:35;;;;;;;;;27.75;25.00;;;;;21.32;40.50;101325.00;4973611;28;45281;-74
2022/05/28 10:54:13;;;;;;;;;6.25;5.25;;;;;21.37;39.90;101330.00;4975664;28;45203;-73
2022/05/28 10:56:52;;;;;;;;;10.50;8.00;;;;;21.14;41.27;101321.88;4973979;28;45483;-74
2022/05/28 10:59:49;;;;;;;;;5.50;5.25;;;;;20.88;40.56;101321.94;4971392;28;45578;-73
2022/05/28 11:02:44;;;;;;;;;6.75;6.00;;;;;20.69;41.32;101309.88;4974464;28;46117;-73
2022/05/28 11:05:15;;;;;;;;;7.00;7.00;;;;;20.89;41.45;101314.75;4974079;28;45227;-73
2022/05/28 11:07:52;;;;;;;;;6.50;6.50;;;;;21.00;39.87;101312.16;4974606;28;45309;-72
2022/05/28 11:10:22;;;;;;;;;9.00;6.50;;;;;21.12;39.71;101305.06;4977409;28;45379;-77
2022/05/28 11:13:04;;;;;;;;;4.50;4.50;;;;;21.25;39.41;101307.72;4976004;28;45258;-74
2022/05/28 11:16:09;;;;;;;;;4.00;4.00;;;;;21.54;38.79;101302.00;4973861;28;45178;-77
2022/05/28 11:18:52;;;;;;;;;6.00;4.50;;;;;21.68;38.34;101291.13;4943452;28;45286;-74
2022/05/28 11:21:31;;;;;;;;;3.75;3.75;;;;;21.73;38.39;101296.09;4973517;28;45327;-76
2022/05/28 11:24:14;;;;;;;;;5.00;4.25;;;;;21.92;37.87;101298.25;4960749;28;46289;-73
2022/05/28 11:26:51;;;;;;;;;4.50;4.50;;;;;21.92;37.99;101286.69;4975824;28;45389;-73
2022/05/28 11:29:31;;;;;;;;;6.25;4.00;;;;;21.85;38.06;101288.97;4973234;28;45385;-72
2022/05/28 11:32:03;;;;;;;;;5.25;4.25;;;;;21.59;36.82;101279.25;4987999;28;45508;-73